Time;durP1;ratioP1;P1;durP2;ratioP2;P2;SDS_P1;SDS_P2;PMS_P1;PMS_P2;Temp;Humidity;BMP_temperature;BMP_pressure;BME280_temperature;BME280_humidity;BME280_pressure;Samples;Min_cycle;Max_cycle;Signal;HPM_P1;HPM_P2
2023/05/05 00:02:43;;;;;;;5.45;4.28;;;;;;;13.28;54.58;99893.59;10523774;28;20074;-64
2023/05/05 00:07:45;;;;;;;6.10;4.72;;;;;;;13.14;54.77;99887.63;10539303;28;20048;-64
2023/05/05 00:12:47;;;;;;;8.70;4.75;;;;;;;13.09;54.95;99881.88;10523026;28;20067;-64
2023/05/05 00:17:49;;;;;;;8.75;5.28;;;;;;;13.08;55.15;99882.81;10522920;28;20773;-64
2023/05/05 00:22:51;;;;;;;7.65;4.90;;;;;;;13.11;55.42;99866.88;10522662;28;20040;-64
2023/05/05 00:27:53;;;;;;;7.82;5.05;;;;;;;13.15;55.38;99865.69;10522651;28;20058;-64
2023/05/05 00:32:56;;;;;;;9.90;5.05;;;;;;;13.20;55.48;99868.81;10523117;28;20045;-64
2023/05/05 00:37:58;;;;;;;7.07;5.35;;;;;;;13.11;55.55;99862.44;10486897;28;20082;-62
2023/05/05 00:43:00;;;;;;;8.00;5.70;;;;;;;12.98;55.91;99854.56;10522081;28;20134;-62
2023/05/05 00:48:02;;;;;;;10.13;5.50;;;;;;;13.13;55.68;99850.03;10522574;28;20192;-62
2023/05/05 00:53:05;;;;;;;7.85;5.78;;;;;;;12.87;56.12;99838.75;10521180;28;20062;-61
2023/05/05 00:58:08;;;;;;;8.73;5.35;;;;;;;12.77;56.62;99844.75;10521835;28;20185;-61
2023/05/05 01:03:11;;;;;;;10.45;5.20;;;;;;;12.82;56.63;99840.84;10502969;28;20071;-62
2023/05/05 01:08:35;;;;;;;10.23;5.28;;;;;;;12.70;56.64;99838.28;10503593;28;20040;-61
2023/05/05 01:13:54;;;;;;;7.13;5.05;;;;;;;12.46;57.50;99846.03;10521057;28;20052;-62
2023/05/05 01:19:33;;;;;;;7.78;5.22;;;;;;;12.41;57.60;99861.28;10520652;28;20489;-62
2023/05/05 01:24:38;;;;;;;10.07;5.95;;;;;;;12.41;57.24;99861.28;10502147;28;20044;-62
2023/05/05 01:29:49;;;;;;;9.73;5.82;;;;;;;12.28;57.85;99844.69;10520069;28;20078;-62
2023/05/05 01:35:03;;;;;;;8.85;5.78;;;;;;;12.03;58.33;99844.63;10520481;28;20545;-61
2023/05/05 01:40:07;;;;;;;6.63;5.38;;;;;;;12.00;58.54;99847.47;10520245;28;20048;-62
2023/05/05 01:45:13;;;;;;;7.18;5.75;;;;;;;12.19;58.10;99852.31;10501212;28;20052;-62
2023/05/05 01:50:16;;;;;;;8.38;5.65;;;;;;;12.25;58.06;99865.00;10501124;28;20048;-62
2023/05/05 01:55:22;;;;;;;12.18;6.03;;;;;;;12.19;58.32;99860.19;10484058;28;20339;-62
2023/05/05 02:00:25;;;;;;;9.90;5.60;;;;;;;12.24;58.35;99865.94;10500885;28;20051;-62
2023/05/05 02:05:30;;;;;;;7.13;5.65;;;;;;;12.29;58.28;99862.13;10500250;28;20055;-62
2023/05/05 02:10:33;;;;;;;9.70;6.03;;;;;;;12.39;58.15;99864.94;10518558;28;20629;-61
2023/05/05 02:15:37;;;;;;;8.05;5.53;;;;;;;12.34;58.11;99869.66;10500140;28;20047;-62
2023/05/05 02:20:40;;;;;;;8.98;5.68;;;;;;;12.25;58.23;99870.25;10518133;28;20621;-62
2023/05/05 02:25:44;;;;;;;7.30;5.45;;;;;;;12.26;58.47;99859.66;10518182;28;20047;-62
2023/05/05 02:30:58;;;;;;;9.52;5.80;;;;;;;12.31;58.42;99875.13;10499703;28;20443;-62
2023/05/05 02:36:28;;;;;;;7.40;5.40;;;;;;;12.16;58.65;99890.06;10517871;28;20071;-61
2023/05/05 02:41:37;;;;;;;7.82;5.85;;;;;;;12.22;58.55;99887.03;10483212;28;20044;-61
2023/05/05 02:46:44;;;;;;;7.67;5.50;;;;;;;12.20;58.33;99891.53;10499216;28;20532;-62
2023/05/05 02:51:47;;;;;;;9.93;5.03;;;;;;;12.08;58.57;99881.88;10482399;28;20076;-62
2023/05/05 02:56:56;;;;;;;8.52;5.70;;;;;;;12.10;58.27;99883.44;10499223;28;20047;-62
2023/05/05 03:02:16;;;;;;;9.73;4.78;;;;;;;11.92;58.96;99889.91;10498759;28;20043;-62
2023/05/05 03:07:33;;;;;;;7.63;5.47;;;;;;;11.90;58.82;99890.94;10517661;28;20466;-62
2023/05/05 03:12:39;;;;;;;10.98;5.95;;;;;;;11.92;58.80;99884.66;10516995;28;20048;-62
2023/05/05 03:17:52;;;;;;;6.93;5.65;;;;;;;11.95;58.61;99897.56;10507302;28;20277;-62
2023/05/05 03:22:55;;;;;;;8.50;5.90;;;;;;;11.98;58.64;99894.75;10507042;28;20108;-62
2023/05/05 03:27:57;;;;;;;7.10;5.57;;;;;;;11.99;58.63;99888.56;10525282;28;20048;-61
2023/05/05 03:32:59;;;;;;;7.68;6.20;;;;;;;12.02;58.76;99884.91;10506227;28;20052;-62
2023/05/05 03:38:02;;;;;;;11.02;5.95;;;;;;;11.80;59.07;99887.25;10506526;28;20149;-62
2023/05/05 03:43:04;;;;;;;8.20;5.93;;;;;;;11.99;59.12;99892.94;10524817;28;20052;-62
2023/05/05 03:48:08;;;;;;;8.82;5.85;;;;;;;12.07;58.80;99893.28;10505947;28;20056;-62
2023/05/05 03:53:11;;;;;;;7.90;5.70;;;;;;;12.02;59.06;99898.00;10506203;28;20040;-62
2023/05/05 03:58:15;;;;;;;8.50;6.07;;;;;;;11.93;59.08;99901.22;10505633;28;20138;-62
2023/05/05 04:03:17;;;;;;;9.07;6.68;;;;;;;12.02;58.84;99904.09;10488469;28;20044;-62
2023/05/05 04:08:19;;;;;;;8.05;5.35;;;;;;;12.08;59.09;99906.31;10505194;28;20044;-62
2023/05/05 04:13:21;;;;;;;8.50;6.10;;;;;;;12.28;58.81;99910.25;10523369;28;20051;-62
2023/05/05 04:18:22;;;;;;;7.93;5.95;;;;;;;12.33;58.50;99913.41;10522971;28;20070;-62
2023/05/05 04:23:25;;;;;;;6.38;5.35;;;;;;;12.34;58.29;99920.31;10522650;28;20040;-64
2023/05/05 04:28:27;;;;;;;8.43;6.22;;;;;;;12.31;58.57;99925.78;10520075;28;20048;-63
2023/05/05 04:33:29;;;;;;;11.00;6.05;;;;;;;12.28;58.56;99925.97;10504677;28;20094;-63
2023/05/05 04:38:31;;;;;;;8.65;6.22;;;;;;;12.34;58.67;99922.94;10512910;28;20067;-63
2023/05/05 04:43:35;;;;;;;9.38;6.38;;;;;;;12.45;58.27;99922.22;10479074;28;20073;-64
2023/05/05 04:48:37;;;;;;;8.73;6.22;;;;;;;12.57;57.88;99922.25;10461667;28;20406;-63
2023/05/05 04:53:39;;;;;;;7.32;5.47;;;;;;;14.62;54.14;99919.53;10478824;28;20044;-64
2023/05/05 04:58:41;;;;;;;8.55;4.85;;;;;;;15.93;51.27;99916.91;10478797;28;20044;-64
2023/05/05 05:03:43;;;;;;;11.70;5.68;;;;;;;17.12;48.94;99921.72;10478387;28;20072;-64
2023/05/05 05:08:46;;;;;;;9.32;5.18;;;;;;;18.33;46.13;99910.81;10461041;28;20124;-64
2023/05/05 05:13:48;;;;;;;11.05;4.97;;;;;;;18.12;45.82;99912.75;10479458;28;20545;-64
2023/05/05 05:18:50;;;;;;;6.93;4.95;;;;;;;17.23;47.24;99926.91;10478877;28;20052;-64
2023/05/05 05:23:52;;;;;;;5.50;4.85;;;;;;;16.35;48.69;99935.41;10477358;28;20543;-64
2023/05/05 05:28:54;;;;;;;8.98;5.13;;;;;;;15.94;49.40;99939.69;10478903;28;20045;-64
2023/05/05 05:33:57;;;;;;;6.88;4.78;;;;;;;15.73;49.67;99943.22;10477540;28;20076;-65
2023/05/05 05:38:59;;;;;;;6.75;5.57;;;;;;;15.46;50.06;99953.31;10475939;28;20052;-64
2023/05/05 05:44:02;;;;;;;7.68;5.97;;;;;;;15.45;50.03;99951.66;10510652;28;20044;-64
2023/05/05 05:49:04;;;;;;;8.57;5.68;;;;;;;15.28;50.55;99953.81;10476230;28;20040;-64
2023/05/05 05:54:06;;;;;;;7.68;5.70;;;;;;;15.31;50.62;99940.38;10476149;28;20044;-64
2023/05/05 05:59:09;;;;;;;14.55;5.70;;;;;;;15.28;50.99;99950.34;10473700;28;20567;-64
2023/05/05 06:04:12;;;;;;;8.35;5.40;;;;;;;15.51;50.71;99951.19;10475693;28;20427;-63
2023/05/05 06:09:14;;;;;;;7.25;5.20;;;;;;;15.87;50.39;99940.31;10458792;28;20313;-64
2023/05/05 06:14:17;;;;;;;9.05;5.47;;;;;;;16.19;49.68;99949.06;10459316;28;20055;-64
2023/05/05 06:19:21;;;;;;;11.63;5.43;;;;;;;16.83;49.06;99942.72;10458658;28;20138;-64
2023/05/05 06:24:23;;;;;;;10.45;5.18;;;;;;;17.27;48.32;99944.19;10475173;28;20153;-64
2023/05/05 06:29:25;;;;;;;8.63;5.15;;;;;;;17.78;47.27;99933.50;10475215;28;20167;-63
2023/05/05 06:34:27;;;;;;;13.88;5.30;;;;;;;17.63;47.67;99940.97;10476063;28;20043;-64
2023/05/05 06:39:29;;;;;;;10.65;5.85;;;;;;;17.69;47.93;99943.06;10513169;28;20393;-64
2023/05/05 06:44:33;;;;;;;10.48;5.63;;;;;;;17.84;47.39;99938.22;10515377;28;20040;-64
2023/05/05 06:49:35;;;;;;;8.98;5.38;;;;;;;18.26;47.50;99933.56;10516485;28;20674;-64
2023/05/05 06:54:37;;;;;;;10.15;4.90;;;;;;;18.55;46.86;99942.28;10517822;28;20130;-64
2023/05/05 06:59:39;;;;;;;9.68;5.28;;;;;;;18.86;47.16;99933.16;10517157;28;20062;-64
2023/05/05 07:04:42;;;;;;;9.27;5.00;;;;;;;18.92;46.72;99931.75;10499200;28;20472;-64
2023/05/05 07:09:44;;;;;;;8.68;4.88;;;;;;;18.78;47.08;99932.19;10516870;28;20113;-64
2023/05/05 07:14:46;;;;;;;8.38;4.80;;;;;;;18.91;46.66;99925.59;10532843;28;20403;-64
2023/05/05 07:19:47;;;;;;;8.05;4.78;;;;;;;19.31;46.59;99939.44;10516762;28;20155;-64
2023/05/05 07:24:52;;;;;;;7.20;4.38;;;;;;;19.54;46.44;99933.72;10499408;28;20047;-64
2023/05/05 07:29:54;;;;;;;6.88;4.63;;;;;;;19.74;46.55;99936.13;10516756;28;20277;-64
2023/05/05 07:34:55;;;;;;;9.75;4.10;;;;;;;20.70;45.58;99935.38;10516671;28;20039;-64
2023/05/05 07:39:57;;;;;;;7.43;4.03;;;;;;;21.77;44.00;99926.72;10531267;28;20064;-64
2023/05/05 07:44:59;;;;;;;7.13;3.70;;;;;;;22.42;42.78;99928.50;10532010;28;20048;-64
2023/05/05 07:50:01;;;;;;;5.80;3.85;;;;;;;23.34;40.99;99926.16;10516258;28;20090;-64
2023/05/05 07:55:03;;;;;;;6.95;3.50;;;;;;;23.62;40.34;99915.00;10516400;28;20048;-64
2023/05/05 08:00:07;;;;;;;12.45;4.32;;;;;;;23.92;39.73;99923.00;10533520;28;20079;-64
2023/05/05 08:05:13;;;;;;;6.75;3.72;;;;;;;24.25;39.36;99919.13;10523590;28;20503;-64
2023/05/05 08:10:15;;;;;;;5.07;3.10;;;;;;;24.29;38.81;99915.09;10523539;28;20127;-64
2023/05/05 08:15:17;;;;;;;8.30;3.35;;;;;;;24.36;38.75;99911.69;10523292;28;20468;-64
2023/05/05 08:20:19;;;;;;;5.28;3.38;;;;;;;24.62;38.02;99918.31;10522787;28;20051;-64
2023/05/05 08:25:21;;;;;;;5.90;3.05;;;;;;;24.54;37.96;99917.53;10504604;28;20462;-64
2023/05/05 08:30:23;;;;;;;7.35;3.15;;;;;;;24.06;38.50;99916.09;10523267;28;20054;-65
2023/05/05 08:35:25;;;;;;;9.90;3.03;;;;;;;24.45;37.88;99911.44;10522319;28;20066;-64
2023/05/05 08:40:35;;;;;;;5.53;2.83;;;;;;;24.93;36.67;99907.47;10522601;28;20143;-64
2023/05/05 08:45:40;;;;;;;7.75;2.83;;;;;;;25.08;37.03;99902.97;10522301;28;20047;-64
2023/05/05 08:50:47;;;;;;;5.35;2.90;;;;;;;25.32;36.24;99910.69;10522037;28;20044;-64
2023/05/05 08:55:54;;;;;;;5.90;3.03;;;;;;;25.15;35.84;99908.38;10521568;28;20097;-62
2023/05/05 09:00:57;;;;;;;7.07;2.95;;;;;;;25.50;35.75;99896.94;10521450;28;20058;-62
2023/05/05 09:05:59;;;;;;;7.18;2.63;;;;;;;25.78;35.51;99898.69;10521597;28;20044;-62
2023/05/05 09:11:01;;;;;;;4.40;2.50;;;;;;;26.01;34.85;99895.03;10502198;28;20063;-62
2023/05/05 09:16:03;;;;;;;3.97;2.40;;;;;;;26.18;33.96;99888.41;10520679;28;20138;-62
2023/05/05 09:21:23;;;;;;;4.45;2.30;;;;;;;26.21;33.14;99896.06;10520573;28;20047;-62
2023/05/05 09:26:25;;;;;;;6.25;2.42;;;;;;;26.18;33.40;99893.78;10520747;28;20044;-62
2023/05/05 09:31:29;;;;;;;6.38;2.28;;;;;;;25.98;33.23;99882.03;10520022;28;20052;-62
2023/05/05 09:36:46;;;;;;;7.78;1.90;;;;;;;26.05;32.13;99893.63;10519947;28;20570;-62
2023/05/05 09:41:48;;;;;;;6.03;1.95;;;;;;;25.92;32.35;99896.19;10520111;28;20076;-62
2023/05/05 09:46:51;;;;;;;4.72;1.80;;;;;;;26.32;30.96;99880.25;10501799;28;20516;-62
2023/05/05 09:51:53;;;;;;;3.80;1.52;;;;;;;26.76;31.29;99874.63;10502008;28;20067;-62
2023/05/05 09:56:56;;;;;;;3.75;1.63;;;;;;;26.63;30.34;99879.91;10518915;28;20508;-62
2023/05/05 10:02:12;;;;;;;3.63;1.63;;;;;;;26.39;30.12;99883.84;10501055;28;20051;-62
2023/05/05 10:07:26;;;;;;;7.85;1.40;;;;;;;25.85;30.11;99888.06;10518877;28;20135;-62
2023/05/05 10:12:30;;;;;;;3.72;1.42;;;;;;;26.16;30.58;99882.41;10518913;28;20044;-62
2023/05/05 10:17:36;;;;;;;4.07;1.65;;;;;;;26.55;30.40;99880.91;10518531;28;20792;-62
2023/05/05 10:22:38;;;;;;;6.35;1.67;;;;;;;26.44;30.02;99880.59;10518115;28;20085;-62
2023/05/05 10:27:49;;;;;;;3.03;1.60;;;;;;;26.52;30.47;99870.53;10518180;28;20559;-62
2023/05/05 10:32:57;;;;;;;18.65;1.75;;;;;;;25.81;30.37;99884.09;10518046;28;20141;-62
2023/05/05 10:38:19;;;;;;;3.13;1.40;;;;;;;25.87;30.98;99868.06;10517723;28;20063;-62
2023/05/05 10:43:23;;;;;;;4.93;1.50;;;;;;;25.84;31.18;99860.44;10517553;28;20499;-62
2023/05/05 10:48:48;;;;;;;4.07;1.60;;;;;;;25.73;30.38;99855.56;10499447;28;20728;-62
2023/05/05 10:53:57;;;;;;;2.00;1.40;;;;;;;25.64;30.67;99861.25;10517322;28;20087;-62
2023/05/05 10:58:59;;;;;;;5.28;1.40;;;;;;;25.19;31.31;99854.31;10517097;28;20485;-62
2023/05/05 11:04:22;;;;;;;4.47;1.40;;;;;;;25.15;30.32;99845.00;10482660;28;20048;-62
2023/05/05 11:09:27;;;;;;;4.95;1.50;;;;;;;25.52;30.17;99833.31;10516856;28;20516;-62
2023/05/05 11:14:29;;;;;;;3.35;1.42;;;;;;;25.47;30.45;99820.47;10516933;28;20044;-64
2023/05/05 11:19:47;;;;;;;3.17;1.30;;;;;;;25.15;29.01;99817.38;10517599;28;20060;-64
2023/05/05 11:24:49;;;;;;;4.22;1.30;;;;;;;25.29;29.28;99808.50;10516312;28;20040;-64
2023/05/05 11:30:03;;;;;;;2.63;1.10;;;;;;;25.17;28.57;99797.47;10516753;28;20048;-64
2023/05/05 11:35:06;;;;;;;2.15;1.20;;;;;;;25.12;29.40;99793.69;10519057;28;20102;-62
2023/05/05 11:40:27;;;;;;;3.85;1.40;;;;;;;25.24;27.67;99771.59;10506541;28;20166;-64
2023/05/05 11:45:29;;;;;;;2.15;1.23;;;;;;;25.54;27.90;99781.22;10540652;28;20131;-64
2023/05/05 11:50:32;;;;;;;3.38;1.10;;;;;;;25.60;28.30;99774.25;10524350;28;20496;-64
2023/05/05 11:55:34;;;;;;;1.77;1.00;;;;;;;25.60;28.28;99769.75;10524119;28;20098;-64
2023/05/05 12:00:35;;;;;;;1.65;1.10;;;;;;;25.60;28.09;99768.91;10523613;28;20062;-63
2023/05/05 12:05:37;;;;;;;4.00;1.40;;;;;;;25.69;28.24;99767.75;10523855;28;20055;-62
2023/05/05 12:10:39;;;;;;;2.78;1.00;;;;;;;25.82;27.16;99774.06;10505093;28;20052;-63
2023/05/05 12:15:41;;;;;;;3.10;1.10;;;;;;;25.78;26.89;99775.47;10522841;28;20052;-63
2023/05/05 12:20:43;;;;;;;8.15;1.10;;;;;;;25.45;26.42;99777.00;10523207;28;20044;-63
2023/05/05 12:25:45;;;;;;;1.80;0.88;;;;;;;25.90;26.74;99771.25;10523182;28;20042;-63
2023/05/05 12:30:57;;;;;;;2.22;1.10;;;;;;;25.82;25.76;99770.53;10522773;28;20474;-63
2023/05/05 12:35:59;;;;;;;2.08;0.98;;;;;;;25.92;25.72;99762.19;10522882;28;20058;-63
2023/05/05 12:41:01;;;;;;;2.38;1.10;;;;;;;25.87;26.05;99752.84;10522174;28;20050;-62
2023/05/05 12:46:05;;;;;;;2.20;1.33;;;;;;;25.50;26.66;99763.88;10521454;28;20138;-63
2023/05/05 12:51:18;;;;;;;2.35;1.08;;;;;;;25.52;25.28;99761.00;10522100;28;20039;-63
2023/05/05 12:56:33;;;;;;;1.88;1.08;;;;;;;25.62;25.41;99748.94;10521709;28;20040;-63
2023/05/05 13:01:46;;;;;;;2.13;1.00;;;;;;;25.77;25.47;99747.00;10521450;28;20496;-63
2023/05/05 13:07:10;;;;;;;3.45;1.00;;;;;;;25.84;25.67;99739.03;10521857;28;20047;-63
2023/05/05 13:12:11;;;;;;;8.43;1.13;;;;;;;25.77;25.86;99735.47;10502746;28;20063;-63
2023/05/05 13:17:13;;;;;;;2.33;0.93;;;;;;;25.60;26.77;99726.88;10521034;28;20126;-63
2023/05/05 13:22:15;;;;;;;6.50;1.30;;;;;;;25.87;26.89;99728.72;10520494;28;20044;-63
2023/05/05 13:27:17;;;;;;;2.88;1.20;;;;;;;25.57;27.51;99719.22;10520321;28;20047;-63
2023/05/05 13:32:19;;;;;;;2.70;1.30;;;;;;;25.69;27.33;99722.22;10520060;28;20135;-64
2023/05/05 13:37:21;;;;;;;2.42;1.17;;;;;;;25.83;27.04;99727.47;10519719;28;20058;-63
2023/05/05 13:42:23;;;;;;;2.78;1.10;;;;;;;25.68;26.83;99717.88;10519873;28;20036;-63
2023/05/05 13:47:25;;;;;;;1.92;0.90;;;;;;;25.79;26.50;99704.78;10519896;28;20134;-63
2023/05/05 13:52:27;;;;;;;4.38;1.17;;;;;;;26.07;26.80;99712.84;10519752;28;20047;-63
2023/05/05 13:57:31;;;;;;;3.30;1.05;;;;;;;25.67;27.05;99722.41;10501292;28;20093;-64
2023/05/05 14:02:33;;;;;;;4.45;1.10;;;;;;;25.54;27.42;99718.78;10519408;28;20530;-63
2023/05/05 14:07:35;;;;;;;4.60;1.35;;;;;;;25.39;27.81;99729.56;10519017;28;20495;-63
2023/05/05 14:12:37;;;;;;;3.47;1.20;;;;;;;25.00;28.25;99742.50;10518795;28;20128;-63
2023/05/05 14:17:38;;;;;;;6.43;1.73;;;;;;;24.55;30.95;99740.88;10500551;28;20052;-63
2023/05/05 14:22:41;;;;;;;7.63;1.80;;;;;;;23.94;32.70;99750.03;10518506;28;20130;-62
2023/05/05 14:27:43;;;;;;;5.07;1.80;;;;;;;23.64;33.89;99758.97;10518710;28;20399;-62
2023/05/05 14:32:44;;;;;;;5.63;1.80;;;;;;;23.03;35.15;99772.38;10499864;28;20403;-63
2023/05/05 14:37:46;;;;;;;3.72;1.70;;;;;;;22.71;35.97;99776.00;10517754;28;20074;-63
2023/05/05 14:42:49;;;;;;;5.80;2.20;;;;;;;22.54;36.62;99783.22;10517415;28;20050;-62
2023/05/05 14:47:51;;;;;;;4.53;1.90;;;;;;;22.37;37.23;99775.44;10518059;28;20102;-63
2023/05/05 14:52:53;;;;;;;8.23;1.80;;;;;;;22.31;37.10;99776.13;10517622;28;20044;-62
2023/05/05 14:57:55;;;;;;;7.18;1.85;;;;;;;22.21;37.36;99775.47;10517344;28;20054;-62
2023/05/05 15:02:57;;;;;;;6.85;1.70;;;;;;;21.98;38.24;99779.81;10498847;28;20044;-62
2023/05/05 15:07:58;;;;;;;4.95;1.80;;;;;;;22.02;38.20;99776.66;10517067;28;20527;-62
2023/05/05 15:13:00;;;;;;;3.55;1.73;;;;;;;21.82;38.44;99773.47;10516233;28;20048;-62
2023/05/05 15:18:02;;;;;;;3.67;1.70;;;;;;;21.86;38.77;99781.97;10517028;28;20086;-62
2023/05/05 15:23:04;;;;;;;7.85;1.80;;;;;;;22.01;38.70;99785.63;10498589;28;20415;-62
2023/05/05 15:28:06;;;;;;;2.85;1.75;;;;;;;22.25;38.32;99784.81;10498971;28;20048;-62
2023/05/05 15:33:09;;;;;;;7.32;1.92;;;;;;;22.56;37.70;99781.22;10516408;28;20040;-64
2023/05/05 15:38:11;;;;;;;4.15;2.15;;;;;;;22.93;37.19;99775.25;10516433;28;20056;-63
2023/05/05 15:43:13;;;;;;;5.38;2.20;;;;;;;22.98;36.72;99775.56;10497725;28;20046;-63
2023/05/05 15:48:14;;;;;;;8.00;1.92;;;;;;;23.08;36.68;99765.53;10515916;28;20219;-63
2023/05/05 15:53:16;;;;;;;5.88;2.30;;;;;;;23.12;36.78;99755.31;10516233;28;20601;-63
2023/05/05 15:58:18;;;;;;;3.67;2.10;;;;;;;23.19;36.75;99756.25;10498234;28;20136;-63
2023/05/05 16:03:20;;;;;;;3.60;1.85;;;;;;;23.27;36.54;99756.22;10515728;28;20451;-62
2023/05/05 16:08:22;;;;;;;7.22;1.90;;;;;;;23.28;36.86;99761.38;10497754;28;20048;-63
2023/05/05 16:13:24;;;;;;;4.00;1.70;;;;;;;23.20;36.50;99760.59;10515837;28;20074;-63
2023/05/05 16:18:25;;;;;;;3.42;1.40;;;;;;;22.92;36.37;99764.78;10515700;28;20044;-63
2023/05/05 16:23:27;;;;;;;2.38;1.33;;;;;;;22.67;36.72;99764.84;10503661;28;20048;-63
2023/05/05 16:28:29;;;;;;;4.55;1.70;;;;;;;22.27;36.30;99769.47;10523122;28;20072;-63
2023/05/05 16:33:31;;;;;;;3.58;1.60;;;;;;;21.76;37.39;99766.16;10522432;28;20048;-62
2023/05/05 16:38:33;;;;;;;4.78;2.10;;;;;;;21.58;37.38;99769.97;10504441;28;20060;-63
2023/05/05 16:43:35;;;;;;;4.78;1.50;;;;;;;21.43;37.41;99769.00;10522512;28;20047;-63
2023/05/05 16:48:37;;;;;;;13.05;4.75;;;;;;;21.07;37.62;99763.06;10522039;28;20507;-63
2023/05/05 16:53:39;;;;;;;11.48;2.35;;;;;;;21.01;37.79;99767.19;10521802;28;20127;-63
2023/05/05 16:58:41;;;;;;;4.18;1.77;;;;;;;21.02;37.93;99771.53;10503733;28;20462;-62
2023/05/05 17:03:46;;;;;;;4.32;1.50;;;;;;;21.33;37.79;99769.16;10521921;28;20070;-63
2023/05/05 17:08:47;;;;;;;3.78;1.33;;;;;;;21.51;36.54;99767.16;10521445;28;20036;-63
2023/05/05 17:13:49;;;;;;;4.28;1.20;;;;;;;21.64;35.63;99764.03;10520904;28;20480;-63
2023/05/05 17:18:52;;;;;;;2.58;1.13;;;;;;;21.32;35.55;99772.78;10520601;28;20370;-63
2023/05/05 17:23:54;;;;;;;3.20;1.00;;;;;;;21.32;35.92;99767.47;10520637;28;20544;-63
2023/05/05 17:28:56;;;;;;;5.88;1.50;;;;;;;21.41;35.76;99776.31;10520444;28;20130;-63
2023/05/05 17:33:58;;;;;;;4.13;1.70;;;;;;;21.63;35.81;99770.31;10519584;28;20040;-63
2023/05/05 17:38:59;;;;;;;3.15;1.10;;;;;;;22.01;35.44;99769.63;10519981;28;20432;-63
2023/05/05 17:44:01;;;;;;;3.65;1.20;;;;;;;22.16;35.69;99770.66;10501762;28;20075;-63
2023/05/05 17:49:03;;;;;;;3.05;1.10;;;;;;;21.76;35.13;99771.47;10519612;28;20404;-63
2023/05/05 17:54:05;;;;;;;3.30;0.95;;;;;;;21.47;35.88;99768.50;10519603;28;20484;-63
2023/05/05 17:59:07;;;;;;;6.63;1.10;;;;;;;21.27;36.10;99771.59;10534766;28;20064;-63
2023/05/05 18:04:10;;;;;;;4.13;1.20;;;;;;;21.02;36.94;99776.03;10518999;28;20211;-63
2023/05/05 18:09:12;;;;;;;4.35;1.10;;;;;;;20.77;37.47;99783.06;10518980;28;20426;-63
2023/05/05 18:14:14;;;;;;;2.42;1.08;;;;;;;20.45;38.29;99785.56;10500722;28;20052;-63
2023/05/05 18:19:19;;;;;;;2.22;1.20;;;;;;;20.43;38.44;99798.16;10533725;28;20044;-63
2023/05/05 18:24:21;;;;;;;2.53;1.02;;;;;;;20.33;39.32;99797.44;10518215;28;20346;-62
2023/05/05 18:29:23;;;;;;;7.05;1.60;;;;;;;20.26;39.27;99802.53;10518291;28;20507;-62
2023/05/05 18:34:25;;;;;;;8.82;1.60;;;;;;;20.22;39.22;99798.53;10518107;28;20052;-63
2023/05/05 18:39:26;;;;;;;1.83;1.00;;;;;;;20.04;39.47;99810.16;10517775;28;20130;-63
2023/05/05 18:44:28;;;;;;;3.28;1.20;;;;;;;19.79;39.66;99822.38;10531932;28;20147;-63
2023/05/05 18:49:30;;;;;;;6.38;1.20;;;;;;;19.46;40.70;99818.59;10499601;28;20070;-63
2023/05/05 18:54:32;;;;;;;3.65;1.13;;;;;;;19.28;41.35;99819.53;10517598;28;20534;-63
2023/05/05 18:59:36;;;;;;;4.53;1.60;;;;;;;19.04;42.21;99830.72;10517182;28;20048;-63
2023/05/05 19:04:40;;;;;;;4.13;1.90;;;;;;;18.67;43.20;99837.81;10517032;28;20816;-63
2023/05/05 19:09:42;;;;;;;3.60;1.65;;;;;;;18.54;43.58;99848.75;10517410;28;20051;-63
2023/05/05 19:14:44;;;;;;;4.60;1.85;;;;;;;18.42;44.27;99852.53;10517091;28;20044;-62
2023/05/05 19:19:46;;;;;;;5.10;1.50;;;;;;;18.25;44.45;99858.59;10516665;28;20567;-63
2023/05/05 19:24:47;;;;;;;7.57;1.50;;;;;;;18.18;45.00;99870.66;10516685;28;20082;-62
2023/05/05 19:29:51;;;;;;;2.58;1.30;;;;;;;18.25;45.43;99878.91;10516958;28;20135;-63
2023/05/05 19:34:53;;;;;;;3.35;1.40;;;;;;;18.25;45.57;99879.75;10516580;28;20051;-63
2023/05/05 19:39:55;;;;;;;4.15;1.70;;;;;;;18.32;45.86;99886.16;10498371;28;20059;-62
2023/05/05 19:44:57;;;;;;;4.22;1.70;;;;;;;18.21;45.88;99886.31;10516411;28;20040;-62
2023/05/05 19:49:59;;;;;;;4.97;1.60;;;;;;;18.30;45.98;99895.22;10516121;28;20044;-62
2023/05/05 19:55:00;;;;;;;2.47;1.35;;;;;;;18.06;46.56;99890.31;10517050;28;20092;-62
2023/05/05 20:00:03;;;;;;;2.90;1.50;;;;;;;18.01;46.73;99897.88;10523830;28;20427;-62
2023/05/05 20:05:05;;;;;;;3.08;1.65;;;;;;;17.97;46.37;99900.91;10524270;28;20036;-62
2023/05/05 20:10:08;;;;;;;3.05;1.60;;;;;;;17.99;46.77;99891.03;10524061;28;20097;-63
2023/05/05 20:15:10;;;;;;;3.72;1.55;;;;;;;18.10;46.70;99898.81;10523643;28;20085;-62
2023/05/05 20:20:16;;;;;;;4.40;1.48;;;;;;;17.88;47.16;99901.75;10523072;28;20052;-62
2023/05/05 20:25:17;;;;;;;5.25;1.60;;;;;;;17.53;47.75;99902.25;10523708;28;20054;-63
2023/05/05 20:30:19;;;;;;;4.53;1.98;;;;;;;17.25;48.95;99909.13;10523126;28;20044;-62
2023/05/05 20:35:21;;;;;;;3.50;1.60;;;;;;;17.21;48.68;99906.88;10522754;28;20559;-63
2023/05/05 20:40:23;;;;;;;3.25;1.58;;;;;;;16.92;49.26;99912.88;10522356;28;20136;-62
2023/05/05 20:45:25;;;;;;;2.78;1.50;;;;;;;16.85;49.55;99908.25;10504759;28;20040;-63
2023/05/05 20:50:27;;;;;;;2.28;1.50;;;;;;;16.84;49.70;99909.22;10521952;28;20508;-63
2023/05/05 20:55:29;;;;;;;7.53;1.98;;;;;;;16.79;49.96;99914.06;10522086;28;20040;-63
2023/05/05 21:00:31;;;;;;;3.65;1.90;;;;;;;16.65;50.36;99915.22;10521877;28;20070;-63
2023/05/05 21:05:33;;;;;;;6.28;1.80;;;;;;;16.39;51.07;99918.34;10521705;28;20052;-63
2023/05/05 21:10:35;;;;;;;4.75;1.90;;;;;;;16.48;51.38;99925.56;10520565;28;20349;-63
2023/05/05 21:15:36;;;;;;;6.10;2.03;;;;;;;16.55;51.34;99930.19;10521087;28;20381;-63
2023/05/05 21:20:38;;;;;;;3.58;1.80;;;;;;;16.53;51.70;99924.19;10521003;28;20135;-63
2023/05/05 21:25:40;;;;;;;3.42;1.70;;;;;;;16.51;51.17;99933.22;10520839;28;20036;-62
2023/05/05 21:30:42;;;;;;;3.63;1.85;;;;;;;16.43;51.55;99933.84;10520942;28;20086;-62
2023/05/05 21:35:45;;;;;;;5.10;2.17;;;;;;;16.20;51.98;99927.00;10519059;28;20163;-62
2023/05/05 21:40:48;;;;;;;3.85;2.13;;;;;;;16.15;52.28;99932.66;10520122;28;20058;-62
2023/05/05 21:46:03;;;;;;;4.43;2.15;;;;;;;15.96;52.82;99947.47;10501877;28;20130;-62
2023/05/05 21:51:05;;;;;;;5.80;1.88;;;;;;;15.85;53.20;99947.50;10519915;28;20069;-62
2023/05/05 21:56:07;;;;;;;3.30;2.03;;;;;;;15.89;53.29;99941.88;10520129;28;20048;-63
2023/05/05 22:01:09;;;;;;;9.48;2.38;;;;;;;15.73;53.70;99937.97;10519271;28;20052;-63
2023/05/05 22:06:11;;;;;;;5.80;2.40;;;;;;;15.60;53.87;99942.53;10519601;28;20044;-62
2023/05/05 22:11:13;;;;;;;4.63;1.90;;;;;;;15.50;54.36;99944.22;10500784;28;20520;-62
2023/05/05 22:16:18;;;;;;;5.50;2.35;;;;;;;15.56;54.38;99944.59;10518881;28;20401;-62
2023/05/05 22:21:20;;;;;;;3.75;2.10;;;;;;;15.71;54.14;99951.28;10518553;28;20090;-62
2023/05/05 22:26:22;;;;;;;3.75;2.03;;;;;;;15.84;53.75;99946.66;10518451;28;20044;-63
2023/05/05 22:31:24;;;;;;;4.32;2.05;;;;;;;15.85;53.86;99951.00;10518233;28;20721;-62
2023/05/05 22:36:26;;;;;;;3.53;1.80;;;;;;;15.82;53.92;99951.22;10533445;28;20040;-62
2023/05/05 22:41:28;;;;;;;4.07;2.28;;;;;;;15.64;54.11;99957.16;10499566;28;20140;-63
2023/05/05 22:46:30;;;;;;;4.88;2.00;;;;;;;15.55;54.39;99957.91;10518284;28;20126;-62
2023/05/05 22:51:31;;;;;;;3.28;1.88;;;;;;;15.60;54.20;99959.19;10517705;28;20486;-62
2023/05/05 22:56:33;;;;;;;3.58;2.00;;;;;;;15.64;54.36;99958.00;10517275;28;20117;-63
2023/05/05 23:01:35;;;;;;;5.00;2.00;;;;;;;15.65;54.41;99964.09;10517127;28;20044;-62
2023/05/05 23:06:40;;;;;;;5.03;2.20;;;;;;;15.61;54.58;99970.59;10517542;28;20071;-63
2023/05/05 23:11:41;;;;;;;3.97;2.00;;;;;;;15.50;55.06;99966.16;10517024;28;20037;-63
2023/05/05 23:16:46;;;;;;;5.07;2.17;;;;;;;15.47;54.96;99962.91;10517156;28;20142;-63
2023/05/05 23:21:48;;;;;;;3.92;2.03;;;;;;;15.59;55.00;99962.78;10516676;28;20506;-63
2023/05/05 23:26:57;;;;;;;4.82;2.10;;;;;;;15.51;54.98;99970.47;10516626;28;20044;-63
2023/05/05 23:31:58;;;;;;;3.03;1.83;;;;;;;15.37;55.13;99960.97;10521012;28;20119;-63